createdAt,value
2024-03-26T00:02:05.242Z,99700.42
2024-03-26T00:04:33.213Z,99701.64
2024-03-26T00:07:01.134Z,99702.33
2024-03-26T00:09:29.148Z,99705.44
2024-03-26T00:11:57.036Z,99707.00
2024-03-26T00:14:25.201Z,99709.59
2024-03-26T00:16:53.252Z,99700.31
2024-03-26T00:19:21.122Z,99707.70
2024-03-26T00:21:48.982Z,99711.70
2024-03-26T00:24:17.258Z,99712.61
2024-03-26T00:26:45.133Z,99713.50
2024-03-26T00:29:12.986Z,99712.48
2024-03-26T00:31:40.856Z,99715.10
2024-03-26T00:34:08.946Z,99715.13
2024-03-26T00:36:37.311Z,99714.30
2024-03-26T00:39:05.166Z,99713.84
2024-03-26T00:41:33.031Z,99712.48
2024-03-26T00:44:01.307Z,99707.66
2024-03-26T00:46:29.480Z,99712.60
2024-03-26T00:48:57.345Z,99709.82
2024-03-26T00:51:25.415Z,99704.41
2024-03-26T00:53:53.234Z,99705.23
2024-03-26T00:56:21.151Z,99700.19
2024-03-26T00:58:49.010Z,99703.08
2024-03-26T01:01:16.932Z,99703.92
2024-03-26T01:03:44.844Z,99707.00
2024-03-26T01:06:13.019Z,99709.23
2024-03-26T01:08:40.992Z,99703.05
2024-03-26T01:11:08.958Z,99701.00
2024-03-26T01:13:36.819Z,99701.69
2024-03-26T01:16:06.250Z,99695.51
2024-03-26T01:18:34.188Z,99695.70
2024-03-26T01:21:02.087Z,99702.73
2024-03-26T01:23:30.027Z,99698.95
2024-03-26T01:25:57.995Z,99690.92
2024-03-26T01:28:25.861Z,99686.83
2024-03-26T01:30:53.720Z,99688.73
2024-03-26T01:33:21.688Z,99687.00
2024-03-26T01:35:55.946Z,99683.40
2024-03-26T01:38:23.869Z,99681.85
2024-03-26T01:40:51.836Z,99677.06
2024-03-26T01:43:19.701Z,99672.08
2024-03-26T01:45:47.667Z,99670.77
2024-03-26T01:48:15.530Z,99671.33
2024-03-26T01:50:43.511Z,99665.84
2024-03-26T01:53:11.673Z,99664.02
2024-03-26T01:55:39.744Z,99667.34
2024-03-26T01:58:08.120Z,99661.15
2024-03-26T02:00:36.730Z,99672.16
2024-03-26T02:03:04.672Z,99670.30
2024-03-26T02:05:32.646Z,99670.67
2024-03-26T02:08:00.718Z,99671.89
2024-03-26T02:10:28.681Z,99664.35
2024-03-26T02:12:56.542Z,99667.27
2024-03-26T02:15:24.513Z,99665.76
2024-03-26T02:17:52.374Z,99665.23
2024-03-26T02:20:22.596Z,99673.84
2024-03-26T02:22:57.209Z,99681.75
2024-03-26T02:25:25.083Z,99678.48
2024-03-26T02:27:52.945Z,99676.63
2024-03-26T02:30:21.028Z,99673.20
2024-03-26T02:32:48.905Z,99672.17
2024-03-26T02:35:16.851Z,99673.91
2024-03-26T02:37:44.820Z,99674.80
2024-03-26T02:40:13.502Z,99680.64
2024-03-26T02:42:41.369Z,99676.71
2024-03-26T02:45:10.569Z,99681.36
2024-03-26T02:47:38.432Z,99680.52
2024-03-26T02:50:07.012Z,99677.44
2024-03-26T02:52:36.717Z,99678.13
2024-03-26T02:55:05.201Z,99675.05
2024-03-26T02:57:33.066Z,99680.72
2024-03-26T03:00:01.040Z,99685.02
2024-03-26T03:02:29.116Z,99685.54
2024-03-26T03:04:56.971Z,99686.91
2024-03-26T03:07:24.852Z,99688.80
2024-03-26T03:09:52.706Z,99690.16
2024-03-26T03:12:20.565Z,99691.02
2024-03-26T03:14:48.443Z,99689.13
2024-03-26T03:17:16.356Z,99684.67
2024-03-26T03:19:44.161Z,99685.87
2024-03-26T03:22:12.539Z,99681.59
2024-03-26T03:24:40.529Z,99676.97
2024-03-26T03:27:08.358Z,99677.66
2024-03-26T03:29:36.240Z,99673.21
2024-03-26T03:32:04.821Z,99670.30
2024-03-26T03:34:32.889Z,99669.27
2024-03-26T03:37:00.762Z,99669.27
2024-03-26T03:39:28.724Z,99667.39
2024-03-26T03:41:56.588Z,99663.80
2024-03-26T03:44:24.656Z,99660.36
2024-03-26T03:46:52.523Z,99659.16
2024-03-26T03:49:20.388Z,99659.50
2024-03-26T03:51:48.259Z,99657.63
2024-03-26T03:54:16.116Z,99655.73
2024-03-26T03:56:44.108Z,99658.33
2024-03-26T03:59:11.961Z,99658.48
2024-03-26T04:01:39.926Z,99660.38
2024-03-26T04:04:07.993Z,99661.77
2024-03-26T04:06:36.481Z,99660.90
2024-03-26T04:09:05.771Z,99662.44
2024-03-26T04:11:35.884Z,99659.52
2024-03-26T04:14:04.080Z,99658.52
2024-03-26T04:16:32.031Z,99660.23
2024-03-26T04:18:59.900Z,99663.13
2024-03-26T04:21:27.759Z,99658.51
2024-03-26T04:23:56.236Z,99655.94
2024-03-26T04:26:24.103Z,99653.70
2024-03-26T04:28:52.075Z,99654.56
2024-03-26T04:31:19.937Z,99651.48
2024-03-26T04:33:47.686Z,99651.48
2024-03-26T04:36:15.562Z,99649.60
2024-03-26T04:38:43.637Z,99653.19
2024-03-26T04:41:11.497Z,99646.84
2024-03-26T04:43:39.364Z,99645.15
2024-03-26T04:46:07.236Z,99644.10
2024-03-26T04:48:35.133Z,99639.14
2024-03-26T04:51:03.270Z,99632.98
2024-03-26T04:53:31.132Z,99630.23
2024-03-26T04:55:59.315Z,99630.93
2024-03-26T04:58:27.272Z,99634.17
2024-03-26T05:00:55.037Z,99626.45
2024-03-26T05:03:23.002Z,99626.13
2024-03-26T05:05:50.931Z,99624.59
2024-03-26T05:08:18.838Z,99622.34
2024-03-26T05:10:47.122Z,99621.84
2024-03-26T05:13:16.015Z,99619.45
2024-03-26T05:15:43.823Z,99617.39
2024-03-26T05:18:11.833Z,99608.48
2024-03-26T05:20:39.700Z,99612.95
2024-03-26T05:23:07.667Z,99610.20
2024-03-26T05:25:38.008Z,99608.13
2024-03-26T05:28:06.438Z,99616.01
2024-03-26T05:30:34.215Z,99618.39
2024-03-26T05:33:02.507Z,99623.20
2024-03-26T05:35:31.192Z,99624.39
2024-03-26T05:38:01.451Z,99618.04
2024-03-26T05:40:30.006Z,99618.89
2024-03-26T05:42:57.859Z,99618.52
2024-03-26T05:45:25.656Z,99616.61
2024-03-26T05:47:53.832Z,99615.91
2024-03-26T05:50:22.068Z,99610.05
2024-03-26T05:52:50.213Z,99609.52
2024-03-26T05:55:18.414Z,99612.05
2024-03-26T05:57:46.280Z,99605.67
2024-03-26T06:00:15.228Z,99604.80
2024-03-26T06:02:43.162Z,99605.96
2024-03-26T06:05:11.208Z,99599.92
2024-03-26T06:07:39.086Z,99599.03
2024-03-26T06:10:07.612Z,99598.48
2024-03-26T06:12:35.532Z,99596.52
2024-03-26T06:15:03.808Z,99596.29
2024-03-26T06:17:31.778Z,99593.33
2024-03-26T06:19:59.630Z,99590.35
2024-03-26T06:22:27.708Z,99587.19
2024-03-26T06:24:55.666Z,99589.18
2024-03-26T06:27:23.733Z,99589.61
2024-03-26T06:29:51.727Z,99585.58
2024-03-26T06:32:19.755Z,99583.06
2024-03-26T06:34:48.919Z,99577.95
2024-03-26T06:37:16.755Z,99574.57
2024-03-26T06:39:44.803Z,99574.44
2024-03-26T06:42:12.773Z,99579.45
2024-03-26T06:44:40.770Z,99575.54
2024-03-26T06:47:09.323Z,99573.31
2024-03-26T06:49:37.402Z,99575.02
2024-03-26T06:52:05.935Z,99572.80
2024-03-26T06:54:34.356Z,99570.73
2024-03-26T06:57:02.233Z,99569.34
2024-03-26T06:59:30.288Z,99569.81
2024-03-26T07:02:01.259Z,99564.97
2024-03-26T07:04:29.222Z,99563.08
2024-03-26T07:06:57.321Z,99562.98
2024-03-26T07:09:25.230Z,99561.02
2024-03-26T07:11:53.357Z,99555.89
2024-03-26T07:14:21.742Z,99551.77
2024-03-26T07:16:49.647Z,99543.32
2024-03-26T07:19:17.612Z,99540.50
2024-03-26T07:21:46.984Z,99535.40
2024-03-26T07:24:14.983Z,99528.61
2024-03-26T07:26:42.855Z,99522.27
2024-03-26T07:29:10.917Z,99520.67
2024-03-26T07:31:38.783Z,99513.69
2024-03-26T07:34:06.707Z,99510.48
2024-03-26T07:36:34.615Z,99508.16
2024-03-26T07:39:02.702Z,99504.52
2024-03-26T07:41:31.218Z,99501.34
2024-03-26T07:44:00.260Z,99499.95
2024-03-26T07:46:28.156Z,99497.18
2024-03-26T07:48:56.129Z,99489.34
2024-03-26T07:51:26.138Z,99487.95
2024-03-26T07:53:54.086Z,99487.20
2024-03-26T07:56:22.045Z,99488.23
2024-03-26T07:58:49.925Z,99484.05
2024-03-26T08:01:18.558Z,99480.10
2024-03-26T08:03:46.765Z,99476.71
2024-03-26T08:06:14.735Z,99469.67
2024-03-26T08:08:42.701Z,99468.54
2024-03-26T08:11:14.542Z,99470.45
2024-03-26T08:13:42.631Z,99464.52
2024-03-26T08:16:11.162Z,99453.33
2024-03-26T08:18:39.175Z,99445.70
2024-03-26T08:21:08.182Z,99442.42
2024-03-26T08:23:36.048Z,99442.69
2024-03-26T08:26:04.003Z,99440.05
2024-03-26T08:28:31.999Z,99437.60
2024-03-26T08:31:00.044Z,99434.42
2024-03-26T08:33:28.010Z,99431.36
2024-03-26T08:35:56.011Z,99434.11
2024-03-26T08:38:24.119Z,99427.02
2024-03-26T08:40:52.117Z,99424.76
2024-03-26T08:43:20.407Z,99420.31
2024-03-26T08:45:49.491Z,99413.92
2024-03-26T08:48:17.659Z,99416.55
2024-03-26T08:50:45.528Z,99418.16
2024-03-26T08:53:13.390Z,99411.42
2024-03-26T08:55:41.257Z,99409.20
2024-03-26T08:58:09.439Z,99409.27
2024-03-26T09:00:37.499Z,99402.07
2024-03-26T09:03:05.754Z,99401.42
2024-03-26T09:05:34.148Z,99399.50
2024-03-26T09:08:02.126Z,99394.17
2024-03-26T09:10:30.600Z,99396.73
2024-03-26T09:12:58.466Z,99393.56
2024-03-26T09:15:26.360Z,99388.00
2024-03-26T09:17:54.721Z,99380.49
2024-03-26T09:20:22.583Z,99375.66
2024-03-26T09:22:50.438Z,99376.27
2024-03-26T09:25:18.618Z,99379.68
2024-03-26T09:27:46.578Z,99370.40
2024-03-26T09:30:16.098Z,99366.36
2024-03-26T09:32:44.263Z,99366.64
2024-03-26T09:35:12.429Z,99362.45
2024-03-26T09:37:40.398Z,99355.97
2024-03-26T09:40:08.780Z,99351.33
2024-03-26T09:42:36.842Z,99353.24
2024-03-26T09:45:07.409Z,99344.67
2024-03-26T09:47:35.863Z,99342.80
2024-03-26T09:50:04.764Z,99349.38
2024-03-26T09:52:36.188Z,99344.55
2024-03-26T09:55:07.434Z,99336.96
2024-03-26T09:57:35.398Z,99332.59
2024-03-26T10:00:04.177Z,99324.90
2024-03-26T10:02:32.972Z,99326.64
2024-03-26T10:05:02.783Z,99328.87
2024-03-26T10:07:30.855Z,99322.80
2024-03-26T10:09:58.924Z,99320.31
2024-03-26T10:12:26.907Z,99315.90
2024-03-26T10:14:55.298Z,99310.74
2024-03-26T10:17:23.233Z,99300.67
2024-03-26T10:19:51.101Z,99298.27
2024-03-26T10:22:18.967Z,99295.31
2024-03-26T10:24:46.837Z,99286.41
2024-03-26T10:27:14.694Z,99289.30
2024-03-26T10:29:42.665Z,99285.30
2024-03-26T10:32:17.296Z,99285.00
2024-03-26T10:34:48.942Z,99272.45
2024-03-26T10:37:16.810Z,99277.60
2024-03-26T10:39:46.124Z,99273.84
2024-03-26T10:42:14.689Z,99269.89
2024-03-26T10:44:42.762Z,99263.84
2024-03-26T10:47:11.250Z,99258.11
2024-03-26T10:49:39.823Z,99256.63
2024-03-26T10:52:09.034Z,99250.59
2024-03-26T10:54:37.503Z,99248.66
2024-03-26T10:57:05.788Z,99240.89
2024-03-26T10:59:33.637Z,99241.77
2024-03-26T11:02:01.780Z,99235.05
2024-03-26T11:04:30.188Z,99228.22
2024-03-26T11:06:59.084Z,99221.95
2024-03-26T11:09:27.043Z,99211.46
2024-03-26T11:11:59.833Z,99214.80
2024-03-26T11:14:30.556Z,99220.11
2024-03-26T11:17:01.289Z,99209.63
2024-03-26T11:19:30.072Z,99214.89
2024-03-26T11:21:58.249Z,99207.66
2024-03-26T11:24:36.349Z,99207.98
2024-03-26T11:27:08.827Z,99202.13
2024-03-26T11:29:37.618Z,99193.77
2024-03-26T11:32:08.346Z,99195.77
2024-03-26T11:34:36.828Z,99187.34
2024-03-26T11:37:06.959Z,99182.85
2024-03-26T11:39:35.542Z,99179.42
2024-03-26T11:42:04.852Z,99176.63
2024-03-26T11:44:33.420Z,99174.96
2024-03-26T11:47:01.278Z,99163.33
2024-03-26T11:49:29.445Z,99160.29
2024-03-26T11:51:57.312Z,99156.21
2024-03-26T11:54:25.281Z,99147.48
2024-03-26T11:56:53.351Z,99134.30
2024-03-26T11:59:25.320Z,99140.51
2024-03-26T12:01:53.175Z,99133.33
2024-03-26T12:04:21.975Z,99129.08
2024-03-26T12:06:49.939Z,99129.38
2024-03-26T12:09:17.897Z,99121.58
2024-03-26T12:11:45.876Z,99118.39
2024-03-26T12:14:13.730Z,99114.92
2024-03-26T12:16:42.423Z,99117.32
2024-03-26T12:19:10.280Z,99114.88
2024-03-26T12:21:38.356Z,99106.93
2024-03-26T12:24:06.854Z,99097.92
2024-03-26T12:26:34.697Z,99092.38
2024-03-26T12:29:02.888Z,99080.23
2024-03-26T12:31:31.045Z,99083.27
2024-03-26T12:34:11.196Z,99076.40
2024-03-26T12:36:39.776Z,99076.14
2024-03-26T12:39:12.062Z,99063.69
2024-03-26T12:41:40.322Z,99062.27
2024-03-26T12:44:12.876Z,99058.36
2024-03-26T12:46:41.538Z,99067.25
2024-03-26T12:49:09.442Z,99058.80
2024-03-26T12:51:37.517Z,99055.20
2024-03-26T12:54:07.240Z,99044.27
2024-03-26T12:56:36.480Z,99040.46
2024-03-26T12:59:06.242Z,99041.56
2024-03-26T13:01:35.044Z,99033.60
2024-03-26T13:04:02.888Z,99033.48
2024-03-26T13:06:30.754Z,99032.93
2024-03-26T13:08:58.622Z,99027.36
2024-03-26T13:11:26.592Z,99019.92
2024-03-26T13:13:54.581Z,99019.51
2024-03-26T13:16:22.618Z,99005.44
2024-03-26T13:18:50.488Z,98997.92
2024-03-26T13:21:18.971Z,98992.56
2024-03-26T13:23:46.831Z,98996.63
2024-03-26T13:26:14.696Z,98997.93
2024-03-26T13:28:42.768Z,98992.34
2024-03-26T13:31:10.635Z,98986.91
2024-03-26T13:33:38.930Z,98983.94
2024-03-26T13:36:07.522Z,98978.45
2024-03-26T13:38:37.464Z,98981.60
2024-03-26T13:41:06.706Z,98976.89
2024-03-26T13:43:34.566Z,98965.00
2024-03-26T13:46:02.519Z,98966.61
2024-03-26T13:48:30.703Z,98957.30
2024-03-26T13:50:58.569Z,98954.98
2024-03-26T13:53:26.450Z,98948.31
2024-03-26T13:55:54.323Z,98945.30
2024-03-26T13:58:22.121Z,98946.77
2024-03-26T14:00:50.142Z,98942.84
2024-03-26T14:03:17.997Z,98935.10
2024-03-26T14:05:46.171Z,98928.04
2024-03-26T14:08:14.042Z,98921.55
2024-03-26T14:10:42.123Z,98926.73
2024-03-26T14:13:09.975Z,98927.41
2024-03-26T14:15:37.858Z,98918.96
2024-03-26T14:18:06.028Z,98917.18
2024-03-26T14:20:33.935Z,98918.23
2024-03-26T14:23:01.949Z,98912.83
2024-03-26T14:25:30.017Z,98904.16
2024-03-26T14:27:57.884Z,98901.80
2024-03-26T14:30:25.956Z,98900.77
2024-03-26T14:32:53.917Z,98892.47
2024-03-26T14:35:21.992Z,98885.11
2024-03-26T14:37:51.611Z,98881.94
2024-03-26T14:40:19.771Z,98881.48
2024-03-26T14:42:47.634Z,98873.02
2024-03-26T14:45:15.504Z,98870.41
2024-03-26T14:47:43.468Z,98866.70
2024-03-26T14:50:14.000Z,98860.40
2024-03-26T14:52:41.968Z,98853.89
2024-03-26T14:55:10.246Z,98848.91
2024-03-26T14:57:38.513Z,98843.28
2024-03-26T15:00:07.052Z,98840.20
2024-03-26T15:02:34.961Z,98833.23
2024-03-26T15:05:05.697Z,98828.86
2024-03-26T15:07:33.662Z,98823.77
2024-03-26T15:10:01.696Z,98822.39
2024-03-26T15:12:29.701Z,98816.98
2024-03-26T15:14:58.380Z,98812.76
2024-03-26T15:17:26.308Z,98813.98
2024-03-26T15:19:54.221Z,98810.18
2024-03-26T15:22:22.286Z,98815.67
2024-03-26T15:24:50.258Z,98811.75
2024-03-26T15:27:18.118Z,98804.04
2024-03-26T15:30:04.936Z,98802.18
2024-03-26T15:32:32.896Z,98800.86
2024-03-26T15:35:00.771Z,98805.25
2024-03-26T15:37:28.728Z,98795.27
2024-03-26T15:39:56.809Z,98795.38
2024-03-26T15:42:24.684Z,98792.52
2024-03-26T15:44:52.938Z,98784.92
2024-03-26T15:47:20.833Z,98785.55
2024-03-26T15:49:48.773Z,98787.58
2024-03-26T15:52:16.740Z,98787.33
2024-03-26T15:54:44.637Z,98791.52
2024-03-26T15:57:12.511Z,98789.29
2024-03-26T15:59:40.439Z,98784.02
2024-03-26T16:02:08.307Z,98785.77
2024-03-26T16:04:36.482Z,98778.54
2024-03-26T16:07:04.861Z,98775.02
2024-03-26T16:09:32.723Z,98774.77
2024-03-26T16:12:05.313Z,98782.85
2024-03-26T16:14:33.362Z,98779.25
2024-03-26T16:17:01.338Z,98779.42
2024-03-26T16:19:29.304Z,98781.77
2024-03-26T16:21:57.290Z,98784.91
2024-03-26T16:24:25.254Z,98780.09
2024-03-26T16:26:53.210Z,98778.98
2024-03-26T16:29:21.175Z,98772.54
2024-03-26T16:31:49.038Z,98773.63
2024-03-26T16:34:17.005Z,98772.96
2024-03-26T16:36:46.511Z,98766.19
2024-03-26T16:39:16.649Z,98763.54
2024-03-26T16:41:47.358Z,98769.77
2024-03-26T16:44:15.224Z,98772.50
2024-03-26T16:46:44.013Z,98768.29
2024-03-26T16:49:11.897Z,98772.45
2024-03-26T16:51:39.845Z,98767.86
2024-03-26T16:54:07.717Z,98765.77
2024-03-26T16:56:36.414Z,98765.38
2024-03-26T16:59:05.798Z,98764.25
2024-03-26T17:01:33.880Z,98761.02
2024-03-26T17:04:01.834Z,98760.16
2024-03-26T17:06:29.806Z,98755.54
2024-03-26T17:08:57.677Z,98753.77
2024-03-26T17:11:28.239Z,98753.86
2024-03-26T17:13:58.321Z,98748.42
2024-03-26T17:16:26.280Z,98746.77
2024-03-26T17:18:55.281Z,98743.29
2024-03-26T17:21:23.153Z,98743.27
2024-03-26T17:23:51.120Z,98744.99
2024-03-26T17:26:19.170Z,98742.06
2024-03-26T17:28:48.064Z,98740.53
2024-03-26T17:31:16.239Z,98744.30
2024-03-26T17:33:44.176Z,98745.45
2024-03-26T17:36:12.071Z,98748.39
2024-03-26T17:38:42.392Z,98743.35
2024-03-26T17:41:10.270Z,98743.89
2024-03-26T17:43:38.325Z,98745.42
2024-03-26T17:46:06.295Z,98740.34
2024-03-26T17:48:34.163Z,98743.10
2024-03-26T17:51:02.541Z,98740.83
2024-03-26T17:53:30.610Z,98739.95
2024-03-26T17:55:58.683Z,98735.49
2024-03-26T17:58:30.127Z,98738.87
2024-03-26T18:01:09.364Z,98738.03
2024-03-26T18:03:37.639Z,98740.71
2024-03-26T18:06:05.911Z,98737.29
2024-03-26T18:08:33.777Z,98737.38
2024-03-26T18:11:01.766Z,98737.17
2024-03-26T18:13:30.540Z,98740.58
2024-03-26T18:16:03.166Z,98740.16
2024-03-26T18:18:31.302Z,98736.45
2024-03-26T18:21:01.101Z,98735.77
2024-03-26T18:23:29.060Z,98740.39
2024-03-26T18:26:15.049Z,98740.73
2024-03-26T18:28:42.930Z,98734.63
2024-03-26T18:31:12.008Z,98737.99
2024-03-26T18:33:39.975Z,98737.56
2024-03-26T18:36:07.944Z,98736.17
2024-03-26T18:38:36.016Z,98736.98
2024-03-26T18:41:06.525Z,98726.83
2024-03-26T18:43:39.242Z,98728.63
2024-03-26T18:46:13.287Z,98722.31
2024-03-26T18:48:42.038Z,98726.08
2024-03-26T18:51:10.394Z,98722.33
2024-03-26T18:53:38.567Z,98719.57
2024-03-26T18:56:08.670Z,98713.17
2024-03-26T18:58:40.659Z,98712.88
2024-03-26T19:01:18.766Z,98717.84
2024-03-26T19:03:48.048Z,98713.11
2024-03-26T19:06:16.975Z,98714.88
2024-03-26T19:08:45.840Z,98711.17
2024-03-26T19:11:14.208Z,98706.84
2024-03-26T19:13:42.480Z,98706.56
2024-03-26T19:16:11.161Z,98703.29
2024-03-26T19:18:39.139Z,98701.35
2024-03-26T19:21:07.828Z,98700.89
2024-03-26T19:23:37.222Z,98696.59
2024-03-26T19:26:06.879Z,98695.41
2024-03-26T19:28:35.614Z,98694.46
2024-03-26T19:31:07.025Z,98694.21
2024-03-26T19:33:35.875Z,98691.09
2024-03-26T19:36:08.023Z,98687.04
2024-03-26T19:38:37.210Z,98683.77
2024-03-26T19:41:08.355Z,98681.77
2024-03-26T19:43:38.143Z,98683.10
2024-03-26T19:46:10.349Z,98680.45
2024-03-26T19:48:39.529Z,98679.58
2024-03-26T19:51:08.832Z,98678.13
2024-03-26T19:53:37.031Z,98677.59
2024-03-26T19:56:12.518Z,98678.91
2024-03-26T19:58:43.582Z,98674.80
2024-03-26T20:01:12.166Z,98676.45
2024-03-26T20:03:40.135Z,98678.36
2024-03-26T20:06:12.910Z,98678.87
2024-03-26T20:08:44.093Z,98676.04
2024-03-26T20:11:12.633Z,98678.48
2024-03-26T20:13:41.481Z,98673.91
2024-03-26T20:16:09.601Z,98673.63
2024-03-26T20:18:37.465Z,98666.32
2024-03-26T20:21:07.055Z,98667.60
2024-03-26T20:23:34.894Z,98665.59
2024-03-26T20:26:04.762Z,98659.30
2024-03-26T20:28:32.936Z,98652.84
2024-03-26T20:31:12.826Z,98651.45
2024-03-26T20:33:42.082Z,98655.08
2024-03-26T20:36:16.526Z,98648.36
2024-03-26T20:38:45.366Z,98645.41
2024-03-26T20:41:13.239Z,98643.73
2024-03-26T20:43:41.512Z,98642.84
2024-03-26T20:46:10.409Z,98640.03
2024-03-26T20:48:38.602Z,98640.46
2024-03-26T20:51:10.547Z,98638.32
2024-03-26T20:53:39.220Z,98638.03
2024-03-26T20:56:08.890Z,98637.32
2024-03-26T20:58:36.911Z,98628.98
2024-03-26T21:01:05.273Z,98629.08
2024-03-26T21:03:36.314Z,98625.14
2024-03-26T21:06:06.262Z,98623.90
2024-03-26T21:08:35.347Z,98622.54
2024-03-26T21:11:13.089Z,98622.16
2024-03-26T21:13:41.348Z,98617.56
2024-03-26T21:16:12.276Z,98615.95
2024-03-26T21:18:48.937Z,98613.79
2024-03-26T21:21:21.304Z,98612.45
2024-03-26T21:23:49.962Z,98615.58
2024-03-26T21:26:19.093Z,98613.15
2024-03-26T21:28:47.501Z,98608.43
2024-03-26T21:31:15.411Z,98608.46
2024-03-26T21:33:43.315Z,98607.60
2024-03-26T21:36:11.943Z,98606.06
2024-03-26T21:38:39.917Z,98604.70
2024-03-26T21:41:08.550Z,98601.98
2024-03-26T21:43:36.592Z,98606.99
2024-03-26T21:46:05.308Z,98605.13
2024-03-26T21:48:33.519Z,98604.66
2024-03-26T21:51:03.229Z,98602.27
2024-03-26T21:53:31.199Z,98595.51
2024-03-26T21:56:04.120Z,98593.80
2024-03-26T21:58:32.151Z,98591.73
2024-03-26T22:01:09.736Z,98587.61
2024-03-26T22:03:38.015Z,98589.71
2024-03-26T22:06:07.940Z,98587.83
2024-03-26T22:08:35.807Z,98582.89
2024-03-26T22:11:03.866Z,98583.75
2024-03-26T22:13:32.456Z,98587.17
2024-03-26T22:16:01.749Z,98584.15
2024-03-26T22:18:30.435Z,98579.15
2024-03-26T22:21:00.752Z,98579.01
2024-03-26T22:23:30.454Z,98576.50
2024-03-26T22:26:03.842Z,98574.06
2024-03-26T22:28:31.730Z,98575.34
2024-03-26T22:31:03.276Z,98576.03
2024-03-26T22:33:31.325Z,98576.92
2024-03-26T22:35:59.315Z,98573.76
2024-03-26T22:38:27.287Z,98575.11
2024-03-26T22:40:56.381Z,98571.91
2024-03-26T22:43:25.162Z,98566.64
2024-03-26T22:45:59.907Z,98566.19
2024-03-26T22:48:28.470Z,98565.69
2024-03-26T22:50:57.434Z,98566.56
2024-03-26T22:53:25.845Z,98568.83
2024-03-26T22:56:07.126Z,98570.38
2024-03-26T22:58:35.087Z,98571.38
2024-03-26T23:01:05.747Z,98569.91
2024-03-26T23:03:33.795Z,98567.13
2024-03-26T23:06:02.992Z,98563.39
2024-03-26T23:08:31.258Z,98557.35
2024-03-26T23:10:59.234Z,98557.92
2024-03-26T23:13:27.913Z,98552.79
2024-03-26T23:16:05.696Z,98555.12
2024-03-26T23:18:33.681Z,98550.80
2024-03-26T23:21:03.799Z,98544.79
2024-03-26T23:23:31.661Z,98540.28
2024-03-26T23:25:59.656Z,98542.34
2024-03-26T23:28:27.596Z,98537.14
2024-03-26T23:30:55.462Z,98533.19
2024-03-26T23:33:23.332Z,98531.77
2024-03-26T23:35:51.295Z,98527.45
2024-03-26T23:38:19.175Z,98525.49
2024-03-26T23:40:50.205Z,98520.43
2024-03-26T23:43:18.384Z,98523.42
2024-03-26T23:45:46.246Z,98519.30
2024-03-26T23:48:14.308Z,98521.39
2024-03-26T23:50:42.180Z,98521.39
2024-03-26T23:53:10.666Z,98515.27
2024-03-26T23:55:39.034Z,98513.91
2024-03-26T23:58:06.998Z,98514.19
